Time;durP1;ratioP1;P1;durP2;ratioP2;P2;SDS_P1;SDS_P2;PMS_P1;PMS_P2;Temp;Humidity;BMP_temperature;BMP_pressure;BME280_temperature;BME280_humidity;BME280_pressure;Samples;Min_cycle;Max_cycle;Signal;HPM_P1;HPM_P2
2022/10/20 00:00:14;;;;;;;11.77;5.38;;;;;;;;;;5123413;27;20055;-78
2022/10/20 00:02:40;;;;;;;9.95;5.55;;;;;;;;;;5102173;27;20113;-77
2022/10/20 00:05:07;;;;;;;11.00;5.60;;;;;;;;;;5097103;28;20035;-77
2022/10/20 00:07:33;;;;;;;11.60;5.78;;;;;;;;;;5117894;27;20039;-78
2022/10/20 00:09:59;;;;;;;10.02;5.50;;;;;;;;;;5080201;28;20496;-77
2022/10/20 00:12:25;;;;;;;11.05;5.85;;;;;;;;;;5082141;27;20471;-78
2022/10/20 00:14:51;;;;;;;11.25;5.60;;;;;;;;;;5115682;27;20096;-78
2022/10/20 00:17:17;;;;;;;10.25;5.25;;;;;;;;;;5103049;27;20114;-78
2022/10/20 00:19:46;;;;;;;9.80;4.70;;;;;;;;;;5104842;27;20048;-78
2022/10/20 00:22:12;;;;;;;13.40;5.93;;;;;;;;;;5108044;27;20035;-78
2022/10/20 00:24:38;;;;;;;13.40;5.75;;;;;;;;;;5098779;27;20435;-78
2022/10/20 00:27:05;;;;;;;14.00;6.13;;;;;;;;;;5096785;28;20507;-77
2022/10/20 00:29:31;;;;;;;8.93;4.93;;;;;;;;;;5094864;27;20043;-69
2022/10/20 00:31:57;;;;;;;12.23;4.75;;;;;;;;;;5127001;27;20038;-69
2022/10/20 00:34:23;;;;;;;12.05;5.70;;;;;;;;;;5093852;27;20395;-69
2022/10/20 00:36:49;;;;;;;13.48;5.82;;;;;;;;;;5096277;28;20369;-68
2022/10/20 00:39:15;;;;;;;12.60;5.97;;;;;;;;;;5106298;27;20051;-68
2022/10/20 00:41:41;;;;;;;11.95;5.90;;;;;;;;;;5125798;27;20077;-69
2022/10/20 00:44:26;;;;;;;12.30;5.88;;;;;;;;;;5090247;27;20039;-69
2022/10/20 00:46:52;;;;;;;10.27;4.72;;;;;;;;;;5128279;27;20110;-68
2022/10/20 00:49:21;;;;;;;8.30;4.70;;;;;;;;;;5100672;27;20039;-68
2022/10/20 00:51:47;;;;;;;11.52;5.45;;;;;;;;;;5117300;27;20039;-68
2022/10/20 00:54:16;;;;;;;13.68;5.10;;;;;;;;;;5118266;27;20039;-70
2022/10/20 00:56:43;;;;;;;13.23;5.72;;;;;;;;;;5124155;27;20527;-68
2022/10/20 00:59:11;;;;;;;9.40;5.50;;;;;;;;;;5095751;28;20429;-68
2022/10/20 01:01:39;;;;;;;15.43;5.95;;;;;;;;;;5119175;27;20051;-68
2022/10/20 01:04:05;;;;;;;13.57;5.38;;;;;;;;;;5096163;28;20426;-69
2022/10/20 01:06:31;;;;;;;9.68;4.97;;;;;;;;;;5124922;27;20039;-69
2022/10/20 01:08:57;;;;;;;9.57;4.80;;;;;;;;;;5095066;28;20512;-68
2022/10/20 01:11:48;;;;;;;11.50;5.10;;;;;;;;;;5130482;27;20118;-68
2022/10/20 01:14:14;;;;;;;10.93;4.60;;;;;;;;;;5095372;28;20042;-78
2022/10/20 01:16:59;;;;;;;9.00;4.70;;;;;;;;;;5117848;27;20101;-69
2022/10/20 01:19:35;;;;;;;11.68;5.43;;;;;;;;;;5094969;28;20038;-68
2022/10/20 01:22:07;;;;;;;14.15;5.97;;;;;;;;;;5125953;27;20039;-78
2022/10/20 01:24:33;;;;;;;8.93;5.50;;;;;;;;;;5096271;28;20495;-77
2022/10/20 01:27:11;;;;;;;11.50;5.63;;;;;;;;;;5097704;27;20050;-78
2022/10/20 01:29:47;;;;;;;14.55;5.78;;;;;;;;;;5133689;27;20038;-68
2022/10/20 01:32:26;;;;;;;8.18;3.92;;;;;;;;;;5130077;27;20070;-70
2022/10/20 01:34:58;;;;;;;11.43;5.68;;;;;;;;;;5095057;28;20089;-69
2022/10/20 01:37:30;;;;;;;8.10;4.85;;;;;;;;;;5127137;27;20043;-77
2022/10/20 01:40:02;;;;;;;10.43;5.38;;;;;;;;;;5094966;28;20492;-78
2022/10/20 01:42:28;;;;;;;7.15;3.95;;;;;;;;;;5132088;27;20081;-77
2022/10/20 01:44:56;;;;;;;13.57;4.90;;;;;;;;;;5129787;27;20039;-77
2022/10/20 01:47:23;;;;;;;9.95;4.93;;;;;;;;;;5109332;27;20031;-77
2022/10/20 01:49:51;;;;;;;15.77;5.43;;;;;;;;;;5118663;27;20059;-77
2022/10/20 01:52:17;;;;;;;9.93;5.35;;;;;;;;;;5112622;27;20102;-68
2022/10/20 01:54:43;;;;;;;10.63;5.45;;;;;;;;;;5104340;27;20058;-68
2022/10/20 01:57:28;;;;;;;13.70;5.95;;;;;;;;;;5103254;27;20530;-68
2022/10/20 02:00:11;;;;;;;11.05;5.57;;;;;;;;;;5096938;28;20088;-69
2022/10/20 02:02:40;;;;;;;11.45;5.93;;;;;;;;;;5129729;27;20502;-77
2022/10/20 02:05:22;;;;;;;11.95;5.22;;;;;;;;;;5116163;27;20082;-79
2022/10/20 02:07:48;;;;;;;10.60;5.32;;;;;;;;;;5098056;27;20040;-77
2022/10/20 02:10:23;;;;;;;12.75;5.15;;;;;;;;;;5115856;27;20100;-77
2022/10/20 02:12:51;;;;;;;9.65;5.57;;;;;;;;;;5118883;27;20547;-77
2022/10/20 02:15:20;;;;;;;12.73;5.90;;;;;;;;;;5097862;28;20039;-77
2022/10/20 02:17:48;;;;;;;10.90;5.50;;;;;;;;;;5094515;28;20044;-77
2022/10/20 02:20:15;;;;;;;12.57;5.57;;;;;;;;;;5099427;27;20403;-77
2022/10/20 02:22:41;;;;;;;8.13;5.13;;;;;;;;;;5075295;28;20036;-69
2022/10/20 02:25:10;;;;;;;11.32;5.57;;;;;;;;;;5123245;27;20929;-70
2022/10/20 02:27:39;;;;;;;12.43;5.82;;;;;;;;;;5077921;28;20044;-68
2022/10/20 02:30:09;;;;;;;9.10;4.70;;;;;;;;;;5105559;28;20044;-70
2022/10/20 02:32:36;;;;;;;11.27;5.63;;;;;;;;;;5094312;28;20446;-68
2022/10/20 02:35:07;;;;;;;11.00;5.65;;;;;;;;;;5120306;27;20059;-68
2022/10/20 02:37:33;;;;;;;13.13;5.35;;;;;;;;;;5094414;28;20415;-69
2022/10/20 02:39:59;;;;;;;13.10;5.53;;;;;;;;;;5125112;27;20073;-68
2022/10/20 02:42:25;;;;;;;11.38;5.30;;;;;;;;;;5110025;28;20035;-69
2022/10/20 02:44:52;;;;;;;10.73;5.47;;;;;;;;;;5118905;27;20035;-69
2022/10/20 02:47:19;;;;;;;11.00;5.88;;;;;;;;;;5094454;28;20032;-68
2022/10/20 02:49:46;;;;;;;14.65;5.63;;;;;;;;;;5099939;27;20130;-78
2022/10/20 02:52:12;;;;;;;11.77;4.82;;;;;;;;;;5112916;27;20451;-76
2022/10/20 02:54:38;;;;;;;8.80;4.85;;;;;;;;;;5101169;27;20035;-77
2022/10/20 02:57:04;;;;;;;11.43;4.97;;;;;;;;;;5097957;28;20044;-77
2022/10/20 02:59:30;;;;;;;8.40;3.95;;;;;;;;;;5097981;28;20040;-77
2022/10/20 03:01:56;;;;;;;12.43;5.00;;;;;;;;;;5109422;27;20046;-77
2022/10/20 03:04:22;;;;;;;9.70;5.28;;;;;;;;;;5098283;28;20043;-77
2022/10/20 03:06:48;;;;;;;12.45;5.85;;;;;;;;;;5105707;27;20040;-78
2022/10/20 03:09:14;;;;;;;9.27;5.10;;;;;;;;;;5097641;28;20044;-77
2022/10/20 03:11:40;;;;;;;13.05;5.70;;;;;;;;;;5111223;27;20046;-78
2022/10/20 03:14:06;;;;;;;9.35;5.38;;;;;;;;;;5097508;28;20039;-78
2022/10/20 03:16:32;;;;;;;9.80;5.03;;;;;;;;;;5108414;27;20039;-75
2022/10/20 03:18:58;;;;;;;10.95;5.95;;;;;;;;;;5099046;27;20046;-68
2022/10/20 03:21:24;;;;;;;9.90;4.68;;;;;;;;;;5123599;27;20075;-67
2022/10/20 03:23:51;;;;;;;8.65;5.13;;;;;;;;;;5105049;28;20043;-68
2022/10/20 03:26:17;;;;;;;13.02;5.78;;;;;;;;;;5119261;27;20028;-67
2022/10/20 03:28:43;;;;;;;11.38;5.95;;;;;;;;;;5134815;27;20461;-68
2022/10/20 03:31:09;;;;;;;9.32;5.13;;;;;;;;;;5100007;28;20043;-68
2022/10/20 03:33:35;;;;;;;9.98;5.70;;;;;;;;;;5103868;27;20480;-67
2022/10/20 03:36:01;;;;;;;9.82;4.88;;;;;;;;;;5111330;27;20039;-68
2022/10/20 03:38:27;;;;;;;11.70;5.45;;;;;;;;;;5107561;27;20093;-76
2022/10/20 03:40:54;;;;;;;11.52;6.22;;;;;;;;;;5098203;28;20035;-76
2022/10/20 03:43:20;;;;;;;10.95;5.63;;;;;;;;;;5100709;27;20040;-76
2022/10/20 03:45:46;;;;;;;9.23;5.47;;;;;;;;;;5097120;28;20043;-78
2022/10/20 03:48:12;;;;;;;11.55;4.70;;;;;;;;;;5123102;27;20038;-68
2022/10/20 03:50:38;;;;;;;12.75;6.40;;;;;;;;;;5114190;27;20417;-67
2022/10/20 03:53:04;;;;;;;10.13;5.35;;;;;;;;;;5135879;27;20429;-68
2022/10/20 03:55:30;;;;;;;9.63;5.90;;;;;;;;;;5126577;27;20031;-76
2022/10/20 03:57:57;;;;;;;11.73;6.13;;;;;;;;;;5100889;27;20051;-76
2022/10/20 04:00:23;;;;;;;11.00;5.93;;;;;;;;;;5116125;27;20086;-78
2022/10/20 04:02:50;;;;;;;10.55;6.10;;;;;;;;;;5117180;27;20515;-77
2022/10/20 04:05:18;;;;;;;9.55;6.35;;;;;;;;;;5117632;27;20373;-77
2022/10/20 04:07:44;;;;;;;14.65;6.18;;;;;;;;;;5135588;27;20032;-76
2022/10/20 04:10:14;;;;;;;14.40;6.90;;;;;;;;;;5135907;27;20066;-76
2022/10/20 04:12:40;;;;;;;9.60;5.82;;;;;;;;;;5133672;27;20031;-75
2022/10/20 04:15:07;;;;;;;11.82;6.10;;;;;;;;;;5120658;27;20122;-76
2022/10/20 04:17:33;;;;;;;9.07;5.88;;;;;;;;;;5092630;27;20039;-75
2022/10/20 04:19:59;;;;;;;10.23;6.20;;;;;;;;;;5108890;27;20059;-76
2022/10/20 04:22:25;;;;;;;11.63;7.05;;;;;;;;;;5110299;27;20035;-77
2022/10/20 04:24:51;;;;;;;11.07;5.97;;;;;;;;;;5101062;27;20047;-76
2022/10/20 04:27:17;;;;;;;10.73;6.10;;;;;;;;;;5120830;27;20031;-75
2022/10/20 04:29:44;;;;;;;12.93;6.45;;;;;;;;;;5133749;27;20047;-77
2022/10/20 04:32:10;;;;;;;12.40;7.38;;;;;;;;;;5134391;27;20074;-76
2022/10/20 04:34:36;;;;;;;8.38;4.75;;;;;;;;;;5116881;27;20084;-75
2022/10/20 04:37:02;;;;;;;11.27;6.50;;;;;;;;;;5104858;27;20075;-77
2022/10/20 04:39:28;;;;;;;13.73;6.60;;;;;;;;;;5114657;27;20044;-77
2022/10/20 04:41:54;;;;;;;13.52;7.65;;;;;;;;;;5115494;27;20039;-76
2022/10/20 04:44:20;;;;;;;12.98;6.65;;;;;;;;;;5128164;27;20159;-76
2022/10/20 04:46:46;;;;;;;9.73;6.07;;;;;;;;;;5104132;27;20051;-76
2022/10/20 04:49:13;;;;;;;15.07;6.90;;;;;;;;;;5114511;27;20518;-76
2022/10/20 04:51:39;;;;;;;16.13;7.60;;;;;;;;;;5127862;27;20088;-77
2022/10/20 04:54:05;;;;;;;14.00;7.22;;;;;;;;;;5113809;28;20038;-75
2022/10/20 04:56:31;;;;;;;13.35;7.00;;;;;;;;;;5101900;27;20035;-75
2022/10/20 04:58:57;;;;;;;12.60;6.93;;;;;;;;;;5091333;28;20126;-75
2022/10/20 05:01:25;;;;;;;14.88;6.90;;;;;;;;;;5128776;27;20404;-75
2022/10/20 05:03:51;;;;;;;11.93;6.78;;;;;;;;;;5098136;28;20055;-75
2022/10/20 05:06:19;;;;;;;15.50;7.07;;;;;;;;;;5113908;28;20394;-75
2022/10/20 05:08:47;;;;;;;14.02;7.75;;;;;;;;;;5128890;27;20036;-75
2022/10/20 05:11:13;;;;;;;15.90;9.35;;;;;;;;;;5094926;28;20044;-76
2022/10/20 05:13:39;;;;;;;11.13;6.40;;;;;;;;;;5102765;27;20055;-76
2022/10/20 05:16:05;;;;;;;12.93;7.18;;;;;;;;;;5117425;27;20036;-75
2022/10/20 05:18:32;;;;;;;14.13;7.90;;;;;;;;;;5111159;27;20525;-77
2022/10/20 05:20:58;;;;;;;12.70;6.20;;;;;;;;;;5098086;27;20035;-75
2022/10/20 05:23:24;;;;;;;12.10;6.78;;;;;;;;;;5122574;27;20475;-76
2022/10/20 05:25:50;;;;;;;18.23;9.95;;;;;;;;;;5134162;27;20043;-76
2022/10/20 05:28:16;;;;;;;21.58;8.88;;;;;;;;;;5135168;27;20396;-77
2022/10/20 05:30:42;;;;;;;14.13;8.82;;;;;;;;;;5134350;27;20099;-76
2022/10/20 05:33:10;;;;;;;15.63;9.73;;;;;;;;;;5143755;27;20050;-75
2022/10/20 05:35:36;;;;;;;17.40;10.05;;;;;;;;;;5133673;27;20113;-77
2022/10/20 05:38:02;;;;;;;11.52;6.90;;;;;;;;;;5133529;27;20501;-76
2022/10/20 05:40:28;;;;;;;20.55;10.13;;;;;;;;;;5118473;27;20118;-76
2022/10/20 05:42:54;;;;;;;18.52;9.65;;;;;;;;;;5116302;27;20085;-76
2022/10/20 05:45:20;;;;;;;19.52;10.05;;;;;;;;;;5127306;27;20035;-77
2022/10/20 05:47:46;;;;;;;12.38;6.53;;;;;;;;;;5116408;27;20130;-76
2022/10/20 05:50:12;;;;;;;17.27;9.10;;;;;;;;;;5115657;27;20043;-67
2022/10/20 05:52:38;;;;;;;12.60;6.82;;;;;;;;;;5112925;28;20450;-69
2022/10/20 05:55:04;;;;;;;13.27;8.68;;;;;;;;;;5103117;27;20085;-68
2022/10/20 05:57:31;;;;;;;18.38;9.02;;;;;;;;;;5114666;27;20034;-69
2022/10/20 05:59:57;;;;;;;17.23;9.80;;;;;;;;;;5113427;27;20042;-69
2022/10/20 06:02:23;;;;;;;23.30;11.63;;;;;;;;;;5114821;27;20058;-68
2022/10/20 06:04:49;;;;;;;18.45;10.63;;;;;;;;;;5114595;27;20038;-68
2022/10/20 06:07:15;;;;;;;15.27;8.18;;;;;;;;;;5115730;27;20045;-69
2022/10/20 06:09:41;;;;;;;19.08;10.90;;;;;;;;;;5114392;27;20046;-68
2022/10/20 06:12:07;;;;;;;19.30;11.10;;;;;;;;;;5133677;27;20095;-69
2022/10/20 06:14:33;;;;;;;14.13;7.95;;;;;;;;;;5113836;27;20039;-69
2022/10/20 06:16:59;;;;;;;18.52;11.38;;;;;;;;;;5134054;27;20045;-68
2022/10/20 06:19:25;;;;;;;18.75;10.63;;;;;;;;;;5132572;27;20039;-68
2022/10/20 06:21:52;;;;;;;19.38;9.93;;;;;;;;;;5110366;28;20404;-78
2022/10/20 06:24:18;;;;;;;16.08;9.57;;;;;;;;;;5105552;27;20039;-77
2022/10/20 06:26:45;;;;;;;18.42;10.15;;;;;;;;;;5105800;28;20071;-77
2022/10/20 06:29:12;;;;;;;14.90;9.38;;;;;;;;;;5120233;28;20077;-69
2022/10/20 06:31:40;;;;;;;18.58;11.13;;;;;;;;;;5101454;28;20043;-68
2022/10/20 06:34:07;;;;;;;21.23;11.43;;;;;;;;;;5097650;28;20043;-69
2022/10/20 06:36:37;;;;;;;19.30;11.77;;;;;;;;;;5113934;28;20035;-69
2022/10/20 06:39:04;;;;;;;19.50;11.68;;;;;;;;;;5121746;27;20032;-78
2022/10/20 06:41:30;;;;;;;19.55;11.68;;;;;;;;;;5129450;27;20383;-67
2022/10/20 06:43:58;;;;;;;20.45;11.50;;;;;;;;;;5103177;28;20027;-77
2022/10/20 06:46:25;;;;;;;21.13;12.43;;;;;;;;;;5094198;28;20035;-77
2022/10/20 06:48:51;;;;;;;16.33;11.45;;;;;;;;;;5134518;27;20043;-78
2022/10/20 06:51:18;;;;;;;15.68;10.88;;;;;;;;;;5118532;27;20046;-78
2022/10/20 06:53:44;;;;;;;19.45;9.88;;;;;;;;;;5101440;28;20108;-67
2022/10/20 06:56:15;;;;;;;19.27;10.75;;;;;;;;;;5114386;28;20035;-68
2022/10/20 06:58:42;;;;;;;19.38;11.38;;;;;;;;;;5108108;28;20065;-68
2022/10/20 07:01:13;;;;;;;20.63;11.00;;;;;;;;;;5118624;28;20097;-69
2022/10/20 07:03:40;;;;;;;16.52;11.02;;;;;;;;;;5095461;28;20044;-69
2022/10/20 07:06:07;;;;;;;19.08;11.25;;;;;;;;;;5092942;28;20453;-67
2022/10/20 07:08:35;;;;;;;20.25;11.55;;;;;;;;;;5118369;27;20466;-67
2022/10/20 07:11:08;;;;;;;19.40;12.20;;;;;;;;;;5113886;27;20080;-68
2022/10/20 07:13:35;;;;;;;21.02;12.65;;;;;;;;;;5093507;28;20411;-67
2022/10/20 07:16:02;;;;;;;19.67;12.07;;;;;;;;;;5093944;28;20048;-68
2022/10/20 07:18:28;;;;;;;16.58;11.18;;;;;;;;;;5098945;28;20055;-69
2022/10/20 07:20:58;;;;;;;18.40;10.27;;;;;;;;;;5102414;28;20096;-68
2022/10/20 07:23:25;;;;;;;18.02;12.05;;;;;;;;;;5104091;28;20104;-68
2022/10/20 07:25:51;;;;;;;16.55;10.98;;;;;;;;;;5116475;27;20035;-68
2022/10/20 07:28:20;;;;;;;19.40;12.30;;;;;;;;;;5107632;28;20046;-68
2022/10/20 07:30:47;;;;;;;19.90;11.80;;;;;;;;;;5099692;28;20048;-68
2022/10/20 07:33:13;;;;;;;21.42;11.50;;;;;;;;;;5106759;27;20122;-69
2022/10/20 07:35:40;;;;;;;19.73;12.00;;;;;;;;;;5133769;27;20476;-67
2022/10/20 07:38:06;;;;;;;16.83;10.93;;;;;;;;;;5101169;28;20118;-68
2022/10/20 07:40:32;;;;;;;18.05;11.90;;;;;;;;;;5096869;28;20412;-69
2022/10/20 07:42:58;;;;;;;15.35;9.80;;;;;;;;;;5080953;28;20534;-69
2022/10/20 07:45:25;;;;;;;18.30;11.50;;;;;;;;;;5122650;27;20042;-69
2022/10/20 07:47:51;;;;;;;15.43;10.82;;;;;;;;;;5115457;28;20039;-68
2022/10/20 07:50:17;;;;;;;17.02;10.35;;;;;;;;;;5114912;28;20540;-68
2022/10/20 07:52:43;;;;;;;20.00;10.43;;;;;;;;;;5080797;27;20108;-68
2022/10/20 07:55:09;;;;;;;16.30;10.43;;;;;;;;;;5097642;28;20067;-68
2022/10/20 07:57:35;;;;;;;18.80;11.07;;;;;;;;;;5096720;28;20074;-67
2022/10/20 08:00:01;;;;;;;18.30;9.70;;;;;;;;;;5081235;27;20058;-68
2022/10/20 08:02:28;;;;;;;18.13;10.38;;;;;;;;;;5105131;27;20047;-69
2022/10/20 08:04:54;;;;;;;16.23;11.18;;;;;;;;;;5109418;27;20130;-68
2022/10/20 08:07:20;;;;;;;18.20;11.13;;;;;;;;;;5126831;27;20040;-68
2022/10/20 08:09:46;;;;;;;31.10;12.13;;;;;;;;;;5104412;27;20381;-68
2022/10/20 08:12:12;;;;;;;17.35;11.55;;;;;;;;;;5136614;27;20052;-67
2022/10/20 08:14:38;;;;;;;19.88;10.25;;;;;;;;;;5131960;27;20058;-69
2022/10/20 08:17:04;;;;;;;16.52;11.35;;;;;;;;;;5125696;27;20042;-68
2022/10/20 08:19:31;;;;;;;14.70;10.55;;;;;;;;;;5130633;27;20488;-77
2022/10/20 08:21:59;;;;;;;15.90;10.48;;;;;;;;;;5104518;27;20404;-79
2022/10/20 08:24:31;;;;;;;15.10;10.10;;;;;;;;;;5139493;27;20067;-80
2022/10/20 08:26:58;;;;;;;15.48;10.48;;;;;;;;;;5139573;27;20034;-80
2022/10/20 08:29:24;;;;;;;16.13;10.43;;;;;;;;;;5120764;27;20038;-79
2022/10/20 08:31:50;;;;;;;13.45;9.80;;;;;;;;;;5114755;27;20031;-82
2022/10/20 08:34:24;;;;;;;15.23;9.80;;;;;;;;;;5118474;27;20099;-78
2022/10/20 08:36:50;;;;;;;16.67;9.98;;;;;;;;;;5116676;27;20118;-76
2022/10/20 08:39:16;;;;;;;12.32;8.52;;;;;;;;;;5102367;28;20048;-76
2022/10/20 08:41:49;;;;;;;13.18;9.85;;;;;;;;;;5103121;28;20052;-79
2022/10/20 08:44:19;;;;;;;12.88;9.77;;;;;;;;;;5112716;28;20038;-81
2022/10/20 08:46:50;;;;;;;15.65;9.48;;;;;;;;;;5128875;27;20039;-79
2022/10/20 08:49:27;;;;;;;15.52;9.13;;;;;;;;;;5125776;27;20036;-82
2022/10/20 08:51:54;;;;;;;13.15;8.48;;;;;;;;;;5118639;27;20050;-78
2022/10/20 08:54:20;;;;;;;11.15;8.77;;;;;;;;;;5107235;28;20452;-78
2022/10/20 08:56:46;;;;;;;11.88;8.02;;;;;;;;;;5114713;27;20042;-77
2022/10/20 08:59:27;;;;;;;11.75;8.43;;;;;;;;;;5116211;27;20168;-76
2022/10/20 09:01:54;;;;;;;12.18;9.10;;;;;;;;;;5114941;27;20055;-77
2022/10/20 09:04:23;;;;;;;11.57;8.98;;;;;;;;;;5120908;27;20084;-77
2022/10/20 09:06:58;;;;;;;13.23;8.65;;;;;;;;;;5101685;27;20032;-78
2022/10/20 09:09:24;;;;;;;14.73;8.38;;;;;;;;;;5099650;27;20044;-77
2022/10/20 09:11:50;;;;;;;12.05;8.55;;;;;;;;;;5112328;27;20173;-78
2022/10/20 09:14:16;;;;;;;10.45;8.05;;;;;;;;;;5092413;27;20050;-79
2022/10/20 09:16:45;;;;;;;13.43;8.70;;;;;;;;;;5122031;27;20031;-79
2022/10/20 09:19:22;;;;;;;10.40;7.88;;;;;;;;;;5114048;28;20077;-77
2022/10/20 09:21:52;;;;;;;12.05;7.53;;;;;;;;;;5109959;27;20039;-79
2022/10/20 09:24:19;;;;;;;13.43;8.15;;;;;;;;;;5116898;27;20043;-78
2022/10/20 09:26:47;;;;;;;10.50;7.50;;;;;;;;;;5080233;27;20044;-78
2022/10/20 09:29:13;;;;;;;14.07;7.28;;;;;;;;;;5118099;27;20050;-78
2022/10/20 09:31:41;;;;;;;16.13;7.65;;;;;;;;;;5095063;28;20128;-79
2022/10/20 09:34:20;;;;;;;10.85;8.23;;;;;;;;;;5102642;27;20071;-81
2022/10/20 09:36:46;;;;;;;10.20;7.22;;;;;;;;;;5114789;27;20496;-78
2022/10/20 09:39:20;;;;;;;16.25;7.88;;;;;;;;;;5133829;27;20067;-79
2022/10/20 09:41:46;;;;;;;12.30;7.57;;;;;;;;;;5114175;27;20046;-80
2022/10/20 09:44:22;;;;;;;9.85;7.35;;;;;;;;;;5132450;27;20043;-79
2022/10/20 09:46:50;;;;;;;10.35;7.22;;;;;;;;;;5097085;27;20035;-78
2022/10/20 09:49:34;;;;;;;10.10;7.63;;;;;;;;;;5115986;27;20046;-78
2022/10/20 09:52:02;;;;;;;10.98;7.57;;;;;;;;;;5114046;27;20086;-80
2022/10/20 09:54:28;;;;;;;10.07;7.10;;;;;;;;;;5115697;27;20121;-79
2022/10/20 09:57:03;;;;;;;11.50;7.15;;;;;;;;;;5111675;27;20118;-81
2022/10/20 09:59:32;;;;;;;9.32;6.50;;;;;;;;;;5094100;27;20043;-80
2022/10/20 10:02:25;;;;;;;8.68;6.80;;;;;;;;;;5096468;27;20051;-81
2022/10/20 10:04:52;;;;;;;11.65;7.32;;;;;;;;;;5096574;27;20050;-78
2022/10/20 10:07:21;;;;;;;9.07;7.40;;;;;;;;;;5127431;27;20036;-79
2022/10/20 10:10:08;;;;;;;9.38;6.97;;;;;;;;;;5101565;27;20040;-81
2022/10/20 10:12:34;;;;;;;10.65;7.35;;;;;;;;;;5093917;28;20523;-78
2022/10/20 10:15:06;;;;;;;10.48;7.60;;;;;;;;;;5094226;28;20058;-79
2022/10/20 10:17:34;;;;;;;11.80;7.72;;;;;;;;;;5085098;27;20216;-80
2022/10/20 10:20:01;;;;;;;10.73;7.10;;;;;;;;;;5100800;27;20043;-80
2022/10/20 10:22:27;;;;;;;10.10;7.18;;;;;;;;;;5108304;27;20488;-80
2022/10/20 10:24:55;;;;;;;10.02;7.18;;;;;;;;;;5098088;27;20039;-79
2022/10/20 10:27:32;;;;;;;9.38;7.28;;;;;;;;;;5115312;27;20147;-79
2022/10/20 10:30:33;;;;;;;9.65;7.05;;;;;;;;;;5108657;27;20038;-79
2022/10/20 10:33:00;;;;;;;9.63;7.80;;;;;;;;;;5069138;28;20503;-80
2022/10/20 10:35:40;;;;;;;11.75;7.50;;;;;;;;;;5092003;28;20511;-79
2022/10/20 10:38:09;;;;;;;9.88;7.32;;;;;;;;;;5116795;28;20035;-80
2022/10/20 10:40:39;;;;;;;8.90;6.90;;;;;;;;;;5114291;27;20047;-80
2022/10/20 10:43:28;;;;;;;13.70;7.43;;;;;;;;;;5106793;28;20151;-80
2022/10/20 10:46:07;;;;;;;9.50;7.25;;;;;;;;;;5104391;28;20032;-80
2022/10/20 10:48:52;;;;;;;10.15;7.13;;;;;;;;;;5101946;28;20502;-79
2022/10/20 10:51:21;;;;;;;9.77;7.95;;;;;;;;;;5111931;27;20045;-79
2022/10/20 10:54:06;;;;;;;12.23;8.13;;;;;;;;;;5132959;27;20035;-79
2022/10/20 10:56:47;;;;;;;10.63;8.05;;;;;;;;;;5094197;28;20092;-79
2022/10/20 10:59:28;;;;;;;11.00;7.80;;;;;;;;;;5100720;28;20106;-68
2022/10/20 11:02:10;;;;;;;12.25;7.97;;;;;;;;;;5098283;27;20050;-70
2022/10/20 11:04:48;;;;;;;10.60;7.93;;;;;;;;;;5121786;28;20046;-69
2022/10/20 11:07:14;;;;;;;12.65;8.48;;;;;;;;;;5093960;27;20063;-69
2022/10/20 11:09:53;;;;;;;9.80;8.45;;;;;;;;;;5127954;27;20510;-68
2022/10/20 11:12:25;;;;;;;10.98;8.23;;;;;;;;;;5122987;27;20042;-68
2022/10/20 11:15:01;;;;;;;13.20;8.57;;;;;;;;;;5104069;28;20043;-68
2022/10/20 11:17:27;;;;;;;;;;;;;;;;;;5098462;28;20070;-69
2022/10/20 11:20:02;;;;;;;12.88;8.75;;;;;;;;;;5082891;28;20399;-68
2022/10/20 11:22:28;;;;;;;14.23;8.90;;;;;;;;;;5113838;27;20430;-68
2022/10/20 11:25:02;;;;;;;13.52;8.75;;;;;;;;;;5149471;27;20272;-67
2022/10/20 11:27:34;;;;;;;14.15;8.68;;;;;;;;;;5152652;27;20034;-67
2022/10/20 11:30:14;;;;;;;14.55;8.35;;;;;;;;;;5122878;27;20051;-68
2022/10/20 11:32:50;;;;;;;11.63;8.35;;;;;;;;;;5135635;27;20040;-69
2022/10/20 11:35:22;;;;;;;12.93;8.82;;;;;;;;;;5118597;27;20107;-67
2022/10/20 11:37:55;;;;;;;14.93;8.98;;;;;;;;;;5117236;27;20483;-67
2022/10/20 11:40:27;;;;;;;13.07;8.63;;;;;;;;;;5136118;27;20384;-68
2022/10/20 11:43:12;;;;;;;13.30;8.98;;;;;;;;;;5117011;27;20039;-68
2022/10/20 11:45:53;;;;;;;14.45;8.68;;;;;;;;;;5119164;27;20388;-69
2022/10/20 11:48:34;;;;;;;14.57;8.70;;;;;;;;;;5125973;27;20054;-69
2022/10/20 11:51:09;;;;;;;19.52;9.95;;;;;;;;;;5117404;27;20043;-70
2022/10/20 11:53:35;;;;;;;13.65;9.57;;;;;;;;;;5116932;27;20035;-70
2022/10/20 11:56:10;;;;;;;14.95;9.40;;;;;;;;;;5122097;27;20137;-77
2022/10/20 11:58:49;;;;;;;13.93;9.68;;;;;;;;;;5112997;27;20059;-77
2022/10/20 12:01:15;;;;;;;14.75;10.00;;;;;;;;;;5129787;27;20525;-77
2022/10/20 12:03:47;;;;;;;15.98;9.63;;;;;;;;;;5102586;27;20077;-79
2022/10/20 12:06:32;;;;;;;15.40;9.65;;;;;;;;;;5121815;27;20495;-78
2022/10/20 12:09:11;;;;;;;12.98;9.73;;;;;;;;;;5112499;27;20039;-78
2022/10/20 12:11:56;;;;;;;14.32;10.20;;;;;;;;;;5115000;28;20047;-79
2022/10/20 12:14:27;;;;;;;14.68;10.50;;;;;;;;;;5101950;27;20040;-80
2022/10/20 12:16:53;;;;;;;15.60;10.73;;;;;;;;;;5127480;27;20563;-79
2022/10/20 12:19:19;;;;;;;13.85;10.07;;;;;;;;;;5116170;27;20043;-81
2022/10/20 12:21:57;;;;;;;16.10;10.23;;;;;;;;;;5111249;27;20043;-81
2022/10/20 12:24:35;;;;;;;17.00;10.85;;;;;;;;;;5103129;27;20389;-80
2022/10/20 12:27:02;;;;;;;16.92;10.82;;;;;;;;;;5093037;27;20108;-79
2022/10/20 12:29:31;;;;;;;14.63;11.05;;;;;;;;;;5111849;27;20087;-80
2022/10/20 12:32:19;;;;;;;17.67;11.65;;;;;;;;;;5097357;27;20046;-80
2022/10/20 12:34:46;;;;;;;16.35;10.75;;;;;;;;;;5102272;27;20121;-76
2022/10/20 12:37:25;;;;;;;17.80;12.00;;;;;;;;;;5123962;27;20041;-80
2022/10/20 12:39:52;;;;;;;19.00;12.13;;;;;;;;;;5112831;27;20039;-70
2022/10/20 12:42:18;;;;;;;16.08;12.07;;;;;;;;;;5139839;27;20037;-69
2022/10/20 12:44:45;;;;;;;18.80;12.05;;;;;;;;;;5110424;27;20126;-71
2022/10/20 12:47:24;;;;;;;17.00;12.02;;;;;;;;;;5127996;27;20067;-70
2022/10/20 12:50:00;;;;;;;18.90;12.00;;;;;;;;;;5127375;27;20096;-72
2022/10/20 12:52:27;;;;;;;17.80;11.95;;;;;;;;;;5114584;27;20497;-69
2022/10/20 12:54:58;;;;;;;22.20;13.13;;;;;;;;;;5128110;27;20073;-70
2022/10/20 12:57:30;;;;;;;19.95;13.23;;;;;;;;;;5117634;27;20043;-71
2022/10/20 12:59:56;;;;;;;18.48;12.52;;;;;;;;;;5113330;27;20103;-70
2022/10/20 13:02:22;;;;;;;21.80;13.27;;;;;;;;;;5102019;27;20105;-70
2022/10/20 13:05:00;;;;;;;19.10;13.38;;;;;;;;;;5103417;28;20396;-72
2022/10/20 13:07:45;;;;;;;19.70;12.95;;;;;;;;;;5104137;27;20031;-72
2022/10/20 13:10:20;;;;;;;21.13;13.38;;;;;;;;;;5130422;27;20093;-72
2022/10/20 13:12:46;;;;;;;18.00;12.63;;;;;;;;;;5101783;27;20041;-73
2022/10/20 13:15:15;;;;;;;19.08;13.13;;;;;;;;;;5120522;27;20438;-72
2022/10/20 13:17:50;;;;;;;18.65;12.98;;;;;;;;;;5109761;27;20062;-73
2022/10/20 13:20:19;;;;;;;22.83;14.37;;;;;;;;;;5088900;28;20089;-80
2022/10/20 13:22:53;;;;;;;22.77;15.27;;;;;;;;;;5128588;27;20035;-81
2022/10/20 13:25:29;;;;;;;21.90;14.05;;;;;;;;;;5095762;28;20044;-81
2022/10/20 13:28:02;;;;;;;22.42;14.80;;;;;;;;;;5099034;27;20062;-81
2022/10/20 13:30:29;;;;;;;28.05;18.15;;;;;;;;;;5108070;27;20043;-81
2022/10/20 13:33:15;;;;;;;39.97;21.50;;;;;;;;;;5121757;27;20047;-81
2022/10/20 13:36:04;;;;;;;24.85;16.13;;;;;;;;;;5116195;27;20530;-79
2022/10/20 13:38:49;;;;;;;26.05;16.30;;;;;;;;;;5116299;27;20054;-81
2022/10/20 13:41:23;;;;;;;24.08;15.95;;;;;;;;;;5098559;27;20039;-73
2022/10/20 13:43:56;;;;;;;24.33;15.52;;;;;;;;;;5126867;27;20446;-71
2022/10/20 13:46:35;;;;;;;26.83;16.20;;;;;;;;;;5114981;27;20043;-74
2022/10/20 13:49:16;;;;;;;24.20;16.33;;;;;;;;;;5119182;27;20066;-74
2022/10/20 13:51:44;;;;;;;27.13;17.35;;;;;;;;;;5104577;28;20396;-72
2022/10/20 13:54:18;;;;;;;25.95;17.70;;;;;;;;;;5113634;27;20388;-72
2022/10/20 13:56:48;;;;;;;33.55;21.25;;;;;;;;;;5098412;27;20066;-73
2022/10/20 13:59:16;;;;;;;41.95;24.13;;;;;;;;;;5115998;27;20027;-72
2022/10/20 14:01:45;;;;;;;31.30;19.10;;;;;;;;;;5115176;27;20090;-75
2022/10/20 14:04:27;;;;;;;28.58;17.60;;;;;;;;;;5115887;27;20050;-74
2022/10/20 14:06:53;;;;;;;41.22;24.45;;;;;;;;;;5115273;27;20031;-72
2022/10/20 14:09:20;;;;;;;28.77;18.13;;;;;;;;;;5116009;28;20027;-73
2022/10/20 14:11:48;;;;;;;29.88;19.00;;;;;;;;;;5114999;27;20031;-71
2022/10/20 14:14:16;;;;;;;26.27;17.13;;;;;;;;;;5133307;27;20105;-75
2022/10/20 14:16:48;;;;;;;29.25;17.77;;;;;;;;;;5123797;27;20086;-72
2022/10/20 14:19:14;;;;;;;25.27;16.50;;;;;;;;;;5139773;27;20042;-72
2022/10/20 14:21:40;;;;;;;26.10;16.00;;;;;;;;;;5098533;27;20035;-73
2022/10/20 14:24:11;;;;;;;25.65;16.77;;;;;;;;;;5120023;27;20050;-71
2022/10/20 14:26:42;;;;;;;26.95;17.02;;;;;;;;;;5094809;27;20036;-70
2022/10/20 14:29:10;;;;;;;30.52;16.98;;;;;;;;;;5096193;28;20070;-73
2022/10/20 14:31:36;;;;;;;28.02;18.15;;;;;;;;;;5092950;28;20099;-69
2022/10/20 14:34:02;;;;;;;33.80;19.48;;;;;;;;;;5115119;27;20047;-76
2022/10/20 14:36:29;;;;;;;27.50;17.17;;;;;;;;;;5079424;27;20495;-71
2022/10/20 14:38:59;;;;;;;32.13;19.45;;;;;;;;;;5117857;27;20036;-74
2022/10/20 14:41:26;;;;;;;34.92;20.30;;;;;;;;;;5093678;28;20101;-73